Time;durP1;ratioP1;P1;durP2;ratioP2;P2;SDS_P1;SDS_P2;PMS_P1;PMS_P2;Temp;Humidity;BMP_temperature;BMP_pressure;BME280_temperature;BME280_humidity;BME280_pressure;Samples;Min_cycle;Max_cycle;Signal;HPM_P1;HPM_P2
2021/07/30 00:00:40;;;;;;;;;8.50;6.50;;;;;;;;4697596;30;46855;-94
2021/07/30 00:03:08;;;;;;;;;10.00;7.75;;;;;;;;4701005;30;45554;-91
2021/07/30 00:05:33;;;;;;;;;9.00;8.75;;;;;;;;4681614;30;45743;-92
2021/07/30 00:07:59;;;;;;;;;8.00;8.00;;;;;;;;4703007;30;45550;-92
2021/07/30 00:10:24;;;;;;;;;5.00;5.00;;;;;;;;4692756;30;47241;-92
2021/07/30 00:12:55;;;;;;;;;7.50;7.00;;;;;;;;4701476;30;45577;-93
2021/07/30 00:15:20;;;;;;;;;5.75;5.75;;;;;;;;4691091;30;45326;-93
2021/07/30 00:17:46;;;;;;;;;10.50;7.00;;;;;;;;4681735;30;45551;-93
2021/07/30 00:20:11;;;;;;;;;8.25;6.50;;;;;;;;4691854;30;47092;-94
2021/07/30 00:22:36;;;;;;;;;6.75;5.00;;;;;;;;4701528;30;45361;-93
2021/07/30 00:25:02;;;;;;;;;6.75;6.50;;;;;;;;4704194;30;45571;-91
2021/07/30 00:27:30;;;;;;;;;8.50;7.00;;;;;;;;4690191;30;45445;-93
2021/07/30 00:29:55;;;;;;;;;7.25;6.25;;;;;;;;4708500;30;45426;-92
2021/07/30 00:32:20;;;;;;;;;8.00;6.75;;;;;;;;4689470;30;46074;-92
2021/07/30 00:34:46;;;;;;;;;8.75;6.00;;;;;;;;4696436;30;45368;-91
2021/07/30 00:37:11;;;;;;;;;7.00;7.00;;;;;;;;4707001;30;45708;-92
2021/07/30 00:39:36;;;;;;;;;7.25;7.00;;;;;;;;4689835;30;47971;-95
2021/07/30 00:42:02;;;;;;;;;10.00;9.00;;;;;;;;4706092;30;46345;-93
2021/07/30 00:44:28;;;;;;;;;6.75;6.50;;;;;;;;4694252;30;45475;-93
2021/07/30 00:46:53;;;;;;;;;10.00;7.75;;;;;;;;4688269;30;45543;-93
2021/07/30 00:49:19;;;;;;;;;6.75;5.50;;;;;;;;4703413;30;45736;-94
2021/07/30 00:51:44;;;;;;;;;8.00;5.00;;;;;;;;4700642;30;45388;-95
2021/07/30 00:54:09;;;;;;;;;7.00;6.50;;;;;;;;4700582;30;45488;-95
2021/07/30 00:56:35;;;;;;;;;8.00;6.00;;;;;;;;4696529;30;45495;-91
2021/07/30 00:59:00;;;;;;;;;8.25;6.00;;;;;;;;4708212;30;46602;-94
2021/07/30 01:01:26;;;;;;;;;7.50;6.75;;;;;;;;4685971;30;45555;-92
2021/07/30 01:03:51;;;;;;;;;6.00;5.00;;;;;;;;4692190;30;44907;-91
2021/07/30 01:06:17;;;;;;;;;7.00;6.25;;;;;;;;4698742;30;45531;-92
2021/07/30 01:08:44;;;;;;;;;6.50;6.00;;;;;;;;4691839;30;47992;-93
2021/07/30 01:11:10;;;;;;;;;9.25;6.75;;;;;;;;4684129;30;45258;-94
2021/07/30 01:13:35;;;;;;;;;6.00;6.00;;;;;;;;4702953;30;45339;-89
2021/07/30 01:16:00;;;;;;;;;7.00;7.00;;;;;;;;4694576;30;45578;-94
2021/07/30 01:18:27;;;;;;;;;8.50;7.25;;;;;;;;4701229;30;46386;-92
2021/07/30 01:21:24;;;;;;;;;6.75;6.75;;;;;;;;4681396;30;45522;-94
2021/07/30 01:23:50;;;;;;;;;7.75;6.00;;;;;;;;4679043;30;45514;-92
2021/07/30 01:26:16;;;;;;;;;9.00;7.75;;;;;;;;4702287;30;45789;-94
2021/07/30 01:28:42;;;;;;;;;7.25;7.00;;;;;;;;4679566;30;47871;-93
2021/07/30 01:31:07;;;;;;;;;9.25;9.00;;;;;;;;4691084;30;46664;-94
2021/07/30 01:33:32;;;;;;;;;7.00;7.00;;;;;;;;4686574;30;45370;-93
2021/07/30 01:35:57;;;;;;;;;10.25;7.25;;;;;;;;4699922;30;45445;-92
2021/07/30 01:38:23;;;;;;;;;9.00;8.00;;;;;;;;4687502;30;47592;-93
2021/07/30 01:40:48;;;;;;;;;10.50;8.50;;;;;;;;4685945;30;46005;-94
2021/07/30 01:43:13;;;;;;;;;10.50;8.00;;;;;;;;4690779;30;45505;-94
2021/07/30 01:45:39;;;;;;;;;8.50;6.50;;;;;;;;4693110;30;45666;-93
2021/07/30 01:48:04;;;;;;;;;10.00;7.75;;;;;;;;4701362;30;45545;-91
2021/07/30 01:50:31;;;;;;;;;10.00;8.50;;;;;;;;4682178;30;45923;-94
2021/07/30 01:52:56;;;;;;;;;9.25;7.75;;;;;;;;4698094;30;45780;-94
2021/07/30 01:55:23;;;;;;;;;8.00;8.00;;;;;;;;4697609;30;45462;-94
2021/07/30 01:57:49;;;;;;;;;12.00;8.25;;;;;;;;4698329;30;45561;-94
2021/07/30 02:00:14;;;;;;;;;8.50;7.75;;;;;;;;4685471;30;45479;-92
2021/07/30 02:02:39;;;;;;;;;9.25;7.75;;;;;;;;4702426;30;45351;-95
2021/07/30 02:05:06;;;;;;;;;10.25;9.00;;;;;;;;4682539;30;45443;-91
2021/07/30 02:07:31;;;;;;;;;9.00;7.25;;;;;;;;4705522;30;46019;-91
2021/07/30 02:09:57;;;;;;;;;11.50;9.25;;;;;;;;4688074;30;46263;-92
2021/07/30 02:12:23;;;;;;;;;11.25;6.00;;;;;;;;4687978;30;45583;-91
2021/07/30 02:14:48;;;;;;;;;6.00;6.00;;;;;;;;4714798;30;45532;-95
2021/07/30 02:17:13;;;;;;;;;9.75;7.50;;;;;;;;4681989;30;47046;-93
2021/07/30 02:19:38;;;;;;;;;8.00;6.00;;;;;;;;4681569;30;46196;-94
2021/07/30 02:22:04;;;;;;;;;9.00;8.00;;;;;;;;4678680;30;45251;-94
2021/07/30 02:24:29;;;;;;;;;8.50;8.00;;;;;;;;4677584;30;45402;-95
2021/07/30 02:26:54;;;;;;;;;7.50;7.00;;;;;;;;4697597;30;45563;-95
2021/07/30 02:29:20;;;;;;;;;10.25;6.25;;;;;;;;4695643;30;45696;-95
2021/07/30 02:31:48;;;;;;;;;7.50;6.00;;;;;;;;4685679;30;45612;-93
2021/07/30 02:34:13;;;;;;;;;8.00;8.00;;;;;;;;4685400;30;45688;-94
2021/07/30 02:36:38;;;;;;;;;9.00;7.00;;;;;;;;4682075;30;47225;-93
2021/07/30 02:39:04;;;;;;;;;8.50;6.50;;;;;;;;4694525;30;45444;-93
2021/07/30 02:41:29;;;;;;;;;11.00;7.00;;;;;;;;4696881;30;45526;-95
2021/07/30 02:43:55;;;;;;;;;7.25;7.25;;;;;;;;4699604;30;45623;-91
2021/07/30 02:46:20;;;;;;;;;7.50;7.00;;;;;;;;4691170;30;47181;-94
2021/07/30 02:48:46;;;;;;;;;9.50;8.00;;;;;;;;4702443;30;45423;-91
2021/07/30 02:51:15;;;;;;;;;7.50;7.50;;;;;;;;4704237;30;45420;-95
2021/07/30 02:53:40;;;;;;;;;7.50;6.25;;;;;;;;4703230;30;45497;-92
2021/07/30 02:56:06;;;;;;;;;12.75;8.75;;;;;;;;4688520;30;46981;-94
2021/07/30 02:58:33;;;;;;;;;10.00;8.00;;;;;;;;4697041;30;45440;-93
2021/07/30 03:00:59;;;;;;;;;7.75;7.00;;;;;;;;4688155;30;45578;-93
2021/07/30 03:03:25;;;;;;;;;9.00;7.00;;;;;;;;4708225;30;45296;-91
2021/07/30 03:05:50;;;;;;;;;8.00;7.75;;;;;;;;4687768;30;47501;-94
2021/07/30 03:08:16;;;;;;;;;9.25;6.00;;;;;;;;4697845;30;45803;-91
2021/07/30 03:10:48;;;;;;;;;8.25;7.75;;;;;;;;4684998;30;45522;-93
2021/07/30 03:13:16;;;;;;;;;10.00;7.75;;;;;;;;4700023;30;45596;-94
2021/07/30 03:15:44;;;;;;;;;7.50;6.50;;;;;;;;4703262;30;45489;-95
2021/07/30 03:18:14;;;;;;;;;8.50;5.50;;;;;;;;4680598;30;45702;-93
2021/07/30 03:20:40;;;;;;;;;8.50;6.00;;;;;;;;4700937;30;45480;-93
2021/07/30 03:23:05;;;;;;;;;6.00;6.00;;;;;;;;4702385;30;45457;-93
2021/07/30 03:25:30;;;;;;;;;5.75;5.75;;;;;;;;4705673;30;45820;-94
2021/07/30 03:27:58;;;;;;;;;8.50;7.25;;;;;;;;4698121;30;45359;-94
2021/07/30 03:30:24;;;;;;;;;7.25;5.00;;;;;;;;4697587;30;45517;-94
2021/07/30 03:32:49;;;;;;;;;8.00;6.50;;;;;;;;4700357;30;45417;-94
2021/07/30 03:35:14;;;;;;;;;8.00;6.00;;;;;;;;4699239;30;45563;-93
2021/07/30 03:37:40;;;;;;;;;8.25;7.00;;;;;;;;4684763;30;45921;-93
2021/07/30 03:40:05;;;;;;;;;7.00;6.00;;;;;;;;4684866;30;45344;-95
2021/07/30 03:42:30;;;;;;;;;6.75;6.00;;;;;;;;4689326;30;45585;-95
2021/07/30 03:44:56;;;;;;;;;11.00;7.50;;;;;;;;4698684;30;47229;-95
2021/07/30 03:47:23;;;;;;;;;7.00;7.00;;;;;;;;4699835;30;45675;-92
2021/07/30 03:49:49;;;;;;;;;8.00;7.25;;;;;;;;4686148;30;45580;-95
2021/07/30 03:52:16;;;;;;;;;8.00;8.00;;;;;;;;4687551;30;45339;-94
2021/07/30 03:54:41;;;;;;;;;6.00;6.00;;;;;;;;4686448;30;47369;-93
2021/07/30 03:57:07;;;;;;;;;9.50;6.00;;;;;;;;4703510;30;45414;-94
2021/07/30 03:59:32;;;;;;;;;9.67;7.00;;;;;;;;4704512;30;45532;-95
2021/07/30 04:01:57;;;;;;;;;7.00;6.00;;;;;;;;4691621;30;44898;-94
2021/07/30 04:04:22;;;;;;;;;9.75;7.50;;;;;;;;4706634;30;45795;-93
2021/07/30 04:06:48;;;;;;;;;9.50;7.25;;;;;;;;4685222;30;45587;-94
2021/07/30 04:09:14;;;;;;;;;7.75;6.25;;;;;;;;4689745;30;45512;-94
2021/07/30 04:11:40;;;;;;;;;12.75;8.75;;;;;;;;4698202;30;45563;-96
2021/07/30 04:14:05;;;;;;;;;10.50;7.50;;;;;;;;4683395;30;47871;-95
2021/07/30 04:16:33;;;;;;;;;10.25;7.50;;;;;;;;4697566;30;45547;-94
2021/07/30 04:18:58;;;;;;;;;8.75;7.50;;;;;;;;4678630;30;45626;-94
2021/07/30 04:21:24;;;;;;;;;7.75;7.75;;;;;;;;4700129;30;45563;-94
2021/07/30 04:26:30;;;;;;;;;9.25;8.00;;;;;;;;4710400;24;45149;-93
2021/07/30 04:29:05;;;;;;;;;7.50;6.00;;;;;;;;4683485;30;45424;-96
2021/07/30 04:31:31;;;;;;;;;7.00;7.00;;;;;;;;4689712;30;45628;-92
2021/07/30 04:36:21;;;;;;;;;9.50;7.25;;;;;;;;4701972;24;62344;-92
2021/07/30 04:38:46;;;;;;;;;6.25;5.00;;;;;;;;4698387;30;45396;-94
2021/07/30 04:41:12;;;;;;;;;9.00;7.00;;;;;;;;4696314;30;45602;-91
2021/07/30 04:43:37;;;;;;;;;9.00;8.00;;;;;;;;4686218;30;47107;-94
2021/07/30 04:46:02;;;;;;;;;7.00;7.00;;;;;;;;4684353;30;45476;-94
2021/07/30 04:48:28;;;;;;;;;9.00;7.00;;;;;;;;4697583;30;51343;-94
2021/07/30 04:50:54;;;;;;;;;10.00;7.75;;;;;;;;4695107;30;45462;-94
2021/07/30 04:53:19;;;;;;;;;6.75;6.00;;;;;;;;4698608;30;45176;-95
2021/07/30 04:55:44;;;;;;;;;6.75;6.00;;;;;;;;4691068;30;45393;-95
2021/07/30 05:04:05;;;;;;;;;7.25;7.25;;;;;;;;4514648;31;46565;-82
2021/07/30 05:21:24;;;;;;;;;9.00;6.25;;;;;;;;5477124;24;46027;-85
2021/07/30 05:44:10;;;;;;;;;9.50;7.25;;;;;;;;4559058;31;45488;-85
2021/07/30 05:55:40;;;;;;;;;6.75;6.75;;;;;;;;4679063;30;45444;-93
2021/07/30 05:58:06;;;;;;;;;8.75;7.50;;;;;;;;4683573;30;45908;-92
2021/07/30 06:00:31;;;;;;;;;9.50;8.00;;;;;;;;4665734;30;47216;-92
2021/07/30 06:02:56;;;;;;;;;10.75;7.25;;;;;;;;4667289;30;45416;-91
2021/07/30 06:05:22;;;;;;;;;9.75;7.00;;;;;;;;4662049;30;45555;-91
2021/07/30 06:07:47;;;;;;;;;5.50;4.00;;;;;;;;4669425;30;45367;-93
2021/07/30 06:10:12;;;;;;;;;7.00;7.00;;;;;;;;4677333;30;45587;-92
2021/07/30 06:12:38;;;;;;;;;7.25;5.50;;;;;;;;4677860;30;45322;-93
2021/07/30 06:15:03;;;;;;;;;6.25;6.25;;;;;;;;4672033;30;45483;-93
2021/07/30 06:17:28;;;;;;;;;9.50;7.75;;;;;;;;4681360;30;45438;-94
2021/07/30 06:19:53;;;;;;;;;8.00;6.67;;;;;;;;4682843;30;45676;-93
2021/07/30 06:22:19;;;;;;;;;7.50;5.25;;;;;;;;4664800;30;45971;-92
2021/07/30 06:24:44;;;;;;;;;7.50;6.25;;;;;;;;4675862;30;45516;-91
2021/07/30 06:27:17;;;;;;;;;6.25;5.75;;;;;;;;4686589;30;44860;-95
2021/07/30 06:29:42;;;;;;;;;8.00;6.50;;;;;;;;4686910;30;47439;-91
2021/07/30 06:32:30;;;;;;;;;5.50;5.50;;;;;;;;4683718;30;45846;-95
2021/07/30 06:34:56;;;;;;;;;5.00;5.00;;;;;;;;4674915;30;45412;-92
2021/07/30 06:37:21;;;;;;;;;5.75;4.00;;;;;;;;4662376;30;44856;-90
2021/07/30 06:39:46;;;;;;;;;3.50;3.50;;;;;;;;4676081;30;45360;-93
2021/07/30 06:42:12;;;;;;;;;5.25;4.75;;;;;;;;4685999;30;45441;-94
2021/07/30 06:44:37;;;;;;;;;6.33;4.00;;;;;;;;4657657;30;45792;-92
2021/07/30 06:47:03;;;;;;;;;5.67;5.00;;;;;;;;4662398;30;45588;-93
2021/07/30 06:49:28;;;;;;;;;5.00;5.00;;;;;;;;4663293;30;48810;-92
2021/07/30 06:51:53;;;;;;;;;6.50;4.75;;;;;;;;4661199;30;46261;-92
2021/07/30 06:54:18;;;;;;;;;8.00;5.00;;;;;;;;4663966;30;45482;-92
2021/07/30 06:56:45;;;;;;;;;5.33;3.67;;;;;;;;4668473;30;45588;-94
2021/07/30 06:59:10;;;;;;;;;4.00;4.00;;;;;;;;4676660;30;45612;-92
2021/07/30 07:01:38;;;;;;;;;6.75;5.00;;;;;;;;4680315;30;45581;-93
2021/07/30 07:04:04;;;;;;;;;5.50;4.50;;;;;;;;4678281;30;45626;-93
2021/07/30 07:06:29;;;;;;;;;4.50;4.50;;;;;;;;4667799;30;45520;-92
2021/07/30 07:08:54;;;;;;;;;3.00;3.00;;;;;;;;4680938;30;46611;-92
2021/07/30 07:11:20;;;;;;;;;4.00;4.00;;;;;;;;4660299;30;46086;-92
2021/07/30 07:13:45;;;;;;;;;5.50;4.75;;;;;;;;4677783;30;45258;-92
2021/07/30 07:16:10;;;;;;;;;5.67;4.00;;;;;;;;4675308;30;45651;-94
2021/07/30 07:18:35;;;;;;;;;3.00;3.00;;;;;;;;4663714;30;47875;-92
2021/07/30 07:21:01;;;;;;;;;5.75;4.50;;;;;;;;4665784;30;45481;-92
2021/07/30 07:23:26;;;;;;;;;7.00;5.00;;;;;;;;4678476;30;45530;-92
2021/07/30 07:25:51;;;;;;;;;6.00;5.00;;;;;;;;4679234;30;45270;-92
2021/07/30 07:28:16;;;;;;;;;5.75;3.00;;;;;;;;4676753;30;45303;-93
2021/07/30 07:30:42;;;;;;;;;5.00;5.00;;;;;;;;4660010;30;45596;-91
2021/07/30 07:33:07;;;;;;;;;5.50;4.00;;;;;;;;4668936;30;45549;-92
2021/07/30 07:35:32;;;;;;;;;7.00;6.00;;;;;;;;4679676;30;45617;-93
2021/07/30 07:40:46;;;;;;;;;6.00;5.50;;;;;;;;4379480;24;45706;-91
2021/07/30 07:43:12;;;;;;;;;4.67;4.67;;;;;;;;4685797;30;45753;-93
2021/07/30 07:45:37;;;;;;;;;7.25;4.25;;;;;;;;4664512;30;45652;-94
2021/07/30 07:48:02;;;;;;;;;5.00;4.75;;;;;;;;4669251;30;48216;-92
2021/07/30 07:50:28;;;;;;;;;5.75;5.00;;;;;;;;4665837;30;46058;-93
2021/07/30 07:52:53;;;;;;;;;4.50;3.75;;;;;;;;4680042;30;45567;-95
2021/07/30 07:55:18;;;;;;;;;4.00;4.00;;;;;;;;4702975;24;45612;-80
2021/07/30 07:57:44;;;;;;;;;6.25;5.00;;;;;;;;4702296;30;45469;-80
2021/07/30 08:00:10;;;;;;;;;6.75;5.25;;;;;;;;4693409;30;45647;-80
2021/07/30 08:02:35;;;;;;;;;5.50;4.50;;;;;;;;4708853;24;47113;-95
2021/07/30 08:05:00;;;;;;;;;7.75;5.00;;;;;;;;4705952;30;45467;-93
2021/07/30 08:07:25;;;;;;;;;5.67;5.67;;;;;;;;4701126;30;46968;-94
2021/07/30 08:09:51;;;;;;;;;5.00;4.33;;;;;;;;4706280;30;45653;-93
2021/07/30 08:12:17;;;;;;;;;3.00;3.00;;;;;;;;4698053;30;45368;-92
2021/07/30 08:14:42;;;;;;;;;5.75;5.00;;;;;;;;4702178;25;45703;-83
2021/07/30 08:17:07;;;;;;;;;4.25;4.25;;;;;;;;4685405;30;47325;-83
2021/07/30 08:19:33;;;;;;;;;5.75;3.00;;;;;;;;4705481;30;45866;-81
2021/07/30 08:27:06;;;;;;;;;7.00;5.00;;;;;;;;4667136;30;46589;-94
2021/07/30 08:29:32;;;;;;;;;2.50;2.50;;;;;;;;4666033;30;45831;-94
2021/07/30 08:31:58;;;;;;;;;5.00;3.75;;;;;;;;4666766;30;45547;-96
2021/07/30 08:34:26;;;;;;;;;6.25;3.25;;;;;;;;4671879;30;45502;-93
2021/07/30 08:36:51;;;;;;;;;2.75;2.50;;;;;;;;4685145;30;45512;-92
2021/07/30 08:39:17;;;;;;;;;5.25;4.00;;;;;;;;4674309;30;45911;-93
2021/07/30 08:41:44;;;;;;;;;6.50;3.75;;;;;;;;4680695;30;45409;-96
2021/07/30 08:44:09;;;;;;;;;4.00;3.50;;;;;;;;4663451;30;45576;-94
2021/07/30 08:46:35;;;;;;;;;3.75;3.75;;;;;;;;4682081;30;45983;-92
2021/07/30 08:49:01;;;;;;;;;4.75;4.00;;;;;;;;4671740;30;45510;-92
2021/07/30 08:51:28;;;;;;;;;7.00;3.75;;;;;;;;4682418;30;45606;-93
2021/07/30 08:53:56;;;;;;;;;6.50;3.50;;;;;;;;4678711;30;47694;-94
2021/07/30 08:56:21;;;;;;;;;3.75;3.75;;;;;;;;4667617;30;47081;-93
2021/07/30 08:58:47;;;;;;;;;4.00;3.75;;;;;;;;4665609;30;45383;-93
2021/07/30 09:01:13;;;;;;;;;3.00;3.00;;;;;;;;4671205;30;45546;-92
2021/07/30 09:03:39;;;;;;;;;5.75;3.00;;;;;;;;4676926;30;46122;-92
2021/07/30 09:06:23;;;;;;;;;4.00;4.00;;;;;;;;4682874;30;45446;-92
2021/07/30 09:09:01;;;;;;;;;3.75;3.00;;;;;;;;4682214;30;45525;-93
2021/07/30 09:11:32;;;;;;;;;5.00;4.25;;;;;;;;4687329;30;44866;-92
2021/07/30 09:13:58;;;;;;;;;4.25;4.00;;;;;;;;4679974;30;45406;-92
2021/07/30 09:16:24;;;;;;;;;6.75;3.75;;;;;;;;4683091;30;45687;-91
2021/07/30 09:18:51;;;;;;;;;5.50;3.50;;;;;;;;4678706;30;46198;-91
2021/07/30 09:21:18;;;;;;;;;5.00;4.00;;;;;;;;4681630;30;47604;-95
2021/07/30 09:24:04;;;;;;;;;2.00;2.00;;;;;;;;4681222;30;45484;-92
2021/07/30 09:26:32;;;;;;;;;3.75;2.75;;;;;;;;4681995;30;45674;-93
2021/07/30 09:28:59;;;;;;;;;3.75;3.00;;;;;;;;4682341;30;44888;-95
2021/07/30 09:31:36;;;;;;;;;4.00;3.25;;;;;;;;4665311;30;45501;-93
2021/07/30 09:34:11;;;;;;;;;3.75;2.75;;;;;;;;4681936;30;47339;-93
2021/07/30 09:36:43;;;;;;;;;4.75;4.25;;;;;;;;4659525;30;47059;-92
2021/07/30 09:39:08;;;;;;;;;3.00;1.75;;;;;;;;4666202;30;46026;-92
2021/07/30 09:41:34;;;;;;;;;4.25;3.50;;;;;;;;4664626;30;46443;-93
2021/07/30 09:44:06;;;;;;;;;5.50;3.25;;;;;;;;4665382;30;45619;-92
2021/07/30 09:46:31;;;;;;;;;3.25;3.00;;;;;;;;4681918;30;46645;-95
2021/07/30 09:48:56;;;;;;;;;5.00;3.50;;;;;;;;4670529;30;45654;-93
2021/07/30 09:51:22;;;;;;;;;4.33;3.67;;;;;;;;4665500;30;46024;-92
2021/07/30 09:53:47;;;;;;;;;5.50;4.00;;;;;;;;4681752;30;45977;-92
2021/07/30 09:56:15;;;;;;;;;4.00;4.00;;;;;;;;4685792;30;47252;-92
2021/07/30 09:58:42;;;;;;;;;5.00;4.00;;;;;;;;4682109;30;45621;-94
2021/07/30 10:01:13;;;;;;;;;4.00;3.00;;;;;;;;4681608;30;45669;-94
2021/07/30 10:03:41;;;;;;;;;5.25;4.00;;;;;;;;4681407;30;45542;-93
2021/07/30 10:06:06;;;;;;;;;3.75;3.25;;;;;;;;4680395;30;45563;-92
2021/07/30 10:08:37;;;;;;;;;2.75;2.25;;;;;;;;4682855;30;45730;-94
2021/07/30 10:11:06;;;;;;;;;5.25;3.50;;;;;;;;4680806;30;45369;-94
2021/07/30 10:13:39;;;;;;;;;4.75;3.25;;;;;;;;4663868;30;45333;-92
2021/07/30 10:16:04;;;;;;;;;6.75;2.00;;;;;;;;4661481;30;47214;-90
2021/07/30 10:18:30;;;;;;;;;2.50;2.50;;;;;;;;4679839;30;45598;-93
2021/07/30 10:20:58;;;;;;;;;3.00;3.00;;;;;;;;4680736;30;45489;-92
2021/07/30 10:23:39;;;;;;;;;3.00;3.00;;;;;;;;4682131;30;45571;-89
2021/07/30 10:26:19;;;;;;;;;3.00;3.00;;;;;;;;4668317;30;47746;-94
2021/07/30 10:28:47;;;;;;;;;6.00;3.50;;;;;;;;4683820;30;45300;-92
2021/07/30 10:31:15;;;;;;;;;5.75;3.00;;;;;;;;4666166;30;45450;-93
2021/07/30 10:33:48;;;;;;;;;3.75;3.00;;;;;;;;4683060;30;45469;-93
2021/07/30 10:36:32;;;;;;;;;3.75;3.00;;;;;;;;4666402;30;47302;-92
2021/07/30 10:39:08;;;;;;;;;5.25;4.00;;;;;;;;4664910;30;45767;-91
2021/07/30 10:41:50;;;;;;;;;4.00;4.00;;;;;;;;4676951;30;45610;-93
2021/07/30 10:44:18;;;;;;;;;3.00;3.00;;;;;;;;4652997;30;45277;-91
2021/07/30 10:47:03;;;;;;;;;3.25;2.75;;;;;;;;4680847;30;45939;-93
2021/07/30 10:49:39;;;;;;;;;2.25;2.25;;;;;;;;4664340;30;45590;-92
2021/07/30 10:52:40;;;;;;;;;4.00;2.25;;;;;;;;4680768;30;45412;-92
2021/07/30 10:55:05;;;;;;;;;2.00;2.00;;;;;;;;4643333;30;45606;-92
2021/07/30 10:57:47;;;;;;;;;3.75;2.25;;;;;;;;4679705;30;46449;-92
2021/07/30 11:00:12;;;;;;;;;3.00;3.00;;;;;;;;4676794;30;45377;-89
2021/07/30 11:02:57;;;;;;;;;4.50;3.25;;;;;;;;4680017;30;45580;-91
2021/07/30 11:05:22;;;;;;;;;2.25;2.25;;;;;;;;4664006;30;45562;-93
2021/07/30 11:07:48;;;;;;;;;2.00;2.00;;;;;;;;4673358;30;47076;-92
2021/07/30 11:10:15;;;;;;;;;2.00;2.00;;;;;;;;4684073;30;45883;-90
2021/07/30 11:12:41;;;;;;;;;3.00;2.00;;;;;;;;4684333;30;45589;-90
2021/07/30 11:15:07;;;;;;;;;3.50;2.50;;;;;;;;4684090;30;45397;-91
2021/07/30 11:17:34;;;;;;;;;3.75;1.75;;;;;;;;4666003;30;48151;-91
2021/07/30 11:20:02;;;;;;;;;2.00;2.00;;;;;;;;4671194;30;45937;-91
2021/07/30 11:23:04;;;;;;;;;2.25;2.25;;;;;;;;4694537;30;45517;-93
2021/07/30 11:26:08;;;;;;;;;3.00;2.00;;;;;;;;4697947;30;44908;-91
2021/07/30 11:28:34;;;;;;;;;2.25;2.00;;;;;;;;4678982;30;47111;-91
2021/07/30 11:30:59;;;;;;;;;3.25;1.75;;;;;;;;4695997;30;44904;-91
2021/07/30 11:33:30;;;;;;;;;3.00;2.00;;;;;;;;4697736;30;44855;-92
2021/07/30 11:36:09;;;;;;;;;3.00;2.25;;;;;;;;4696835;30;45045;-91
2021/07/30 11:39:00;;;;;;;;;2.75;0.50;;;;;;;;4692344;30;46804;-91
2021/07/30 11:41:28;;;;;;;;;2.00;1.00;;;;;;;;4686864;30;45321;-90
2021/07/30 11:43:58;;;;;;;;;4.25;2.00;;;;;;;;4671143;30;45515;-90
2021/07/30 11:46:26;;;;;;;;;1.00;1.00;;;;;;;;4681317;30;45653;-89
2021/07/30 11:48:54;;;;;;;;;1.00;1.00;;;;;;;;4680761;30;45443;-91
2021/07/30 11:51:20;;;;;;;;;0.25;0.25;;;;;;;;4667379;30;45626;-90
2021/07/30 11:53:50;;;;;;;;;0.00;0.00;;;;;;;;4685740;30;45467;-89
2021/07/30 11:56:17;;;;;;;;;0.00;0.00;;;;;;;;4681368;30;46020;-91
2021/07/30 11:58:56;;;;;;;;;2.00;0.25;;;;;;;;4682050;30;46300;-91
2021/07/30 12:01:21;;;;;;;;;1.00;0.00;;;;;;;;4682877;30;45449;-91
2021/07/30 12:04:03;;;;;;;;;0.00;0.00;;;;;;;;4660179;30;45496;-92
2021/07/30 12:06:29;;;;;;;;;0.00;0.00;;;;;;;;4677701;30;45379;-88
2021/07/30 12:08:55;;;;;;;;;0.00;0.00;;;;;;;;4667321;30;46749;-91
2021/07/30 12:11:26;;;;;;;;;0.00;0.00;;;;;;;;4676691;30;46121;-89
2021/07/30 12:13:52;;;;;;;;;0.00;0.00;;;;;;;;4671890;30;45350;-90
2021/07/30 12:16:18;;;;;;;;;0.00;0.00;;;;;;;;4680853;30;45704;-90
2021/07/30 12:18:43;;;;;;;;;0.00;0.00;;;;;;;;4680387;30;45511;-93
2021/07/30 12:21:08;;;;;;;;;0.00;0.00;;;;;;;;4673907;30;45811;-88
2021/07/30 12:23:34;;;;;;;;;0.00;0.00;;;;;;;;4678837;30;45516;-89
2021/07/30 12:25:59;;;;;;;;;1.00;0.00;;;;;;;;4675406;30;45464;-90
2021/07/30 12:28:26;;;;;;;;;0.00;0.00;;;;;;;;4680926;30;45506;-89
2021/07/30 12:30:53;;;;;;;;;1.50;0.00;;;;;;;;4673826;30;45528;-89
2021/07/30 12:33:23;;;;;;;;;0.00;0.00;;;;;;;;4678698;30;45384;-88
2021/07/30 12:35:48;;;;;;;;;1.00;0.00;;;;;;;;4680792;30;45369;-90
2021/07/30 12:38:15;;;;;;;;;0.00;0.00;;;;;;;;4678798;30;46323;-89
2021/07/30 12:40:43;;;;;;;;;0.00;0.00;;;;;;;;4669281;30;45571;-88
2021/07/30 12:43:16;;;;;;;;;0.00;0.00;;;;;;;;4680312;30;45393;-90
2021/07/30 12:45:45;;;;;;;;;0.00;0.00;;;;;;;;4679935;30;45715;-90
2021/07/30 12:48:24;;;;;;;;;2.25;0.00;;;;;;;;4677016;30;45530;-91
2021/07/30 12:51:02;;;;;;;;;1.00;0.00;;;;;;;;4678023;30;45986;-90
2021/07/30 12:53:28;;;;;;;;;1.50;0.00;;;;;;;;4679674;30;45547;-91
2021/07/30 12:56:00;;;;;;;;;0.75;0.00;;;;;;;;4682047;30;45630;-92
2021/07/30 12:58:27;;;;;;;;;0.00;0.00;;;;;;;;4673746;30;45786;-88
2021/07/30 13:00:52;;;;;;;;;0.00;0.00;;;;;;;;4679195;30;45620;-90
2021/07/30 13:03:19;;;;;;;;;0.00;0.00;;;;;;;;4676577;30;45662;-90
2021/07/30 13:05:55;;;;;;;;;2.50;0.00;;;;;;;;4682590;30;46705;-89
2021/07/30 13:08:21;;;;;;;;;0.25;0.00;;;;;;;;4679583;30;45978;-89
2021/07/30 13:10:47;;;;;;;;;1.50;0.00;;;;;;;;4680163;30;45488;-91
2021/07/30 13:13:15;;;;;;;;;0.50;0.00;;;;;;;;4680223;30;45566;-89
2021/07/30 13:15:41;;;;;;;;;1.50;1.50;;;;;;;;4680321;30;45466;-90
2021/07/30 13:18:06;;;;;;;;;0.25;0.00;;;;;;;;4679871;30;45779;-90
2021/07/30 13:20:32;;;;;;;;;0.00;0.00;;;;;;;;4679092;30;45534;-88
2021/07/30 13:22:57;;;;;;;;;1.00;1.00;;;;;;;;4663606;30;45577;-91
2021/07/30 13:25:22;;;;;;;;;2.00;0.75;;;;;;;;4681295;30;46144;-89
2021/07/30 13:27:47;;;;;;;;;0.00;0.00;;;;;;;;4676652;30;45355;-89
2021/07/30 13:30:13;;;;;;;;;0.00;0.00;;;;;;;;4678257;30;45398;-91
2021/07/30 13:32:39;;;;;;;;;0.00;0.00;;;;;;;;4664449;30;45490;-90
2021/07/30 13:35:05;;;;;;;;;1.75;0.00;;;;;;;;4660833;30;44904;-90
2021/07/30 13:37:30;;;;;;;;;2.50;1.00;;;;;;;;4686622;30;46769;-91
2021/07/30 13:39:56;;;;;;;;;0.50;0.50;;;;;;;;4666783;30;45386;-91
2021/07/30 13:42:24;;;;;;;;;1.00;1.00;;;;;;;;4666867;30;45499;-92
2021/07/30 13:44:53;;;;;;;;;2.00;0.25;;;;;;;;4681125;30;45451;-91
2021/07/30 13:47:22;;;;;;;;;1.00;0.75;;;;;;;;4681786;30;45837;-92
2021/07/30 13:49:47;;;;;;;;;0.25;0.25;;;;;;;;4666849;30;45547;-90
2021/07/30 13:52:12;;;;;;;;;0.75;0.75;;;;;;;;4661643;30;45239;-93
2021/07/30 13:54:39;;;;;;;;;2.00;0.00;;;;;;;;4664729;30;45483;-90
2021/07/30 13:57:08;;;;;;;;;1.00;1.00;;;;;;;;4666536;30;47505;-91
2021/07/30 13:59:33;;;;;;;;;1.25;1.25;;;;;;;;4678049;30;45523;-91
2021/07/30 14:01:59;;;;;;;;;1.00;1.00;;;;;;;;4664541;30;45523;-93
2021/07/30 14:04:24;;;;;;;;;1.00;1.00;;;;;;;;4665768;30;45616;-94
2021/07/30 14:06:52;;;;;;;;;2.75;1.00;;;;;;;;4680599;30;45483;-91
2021/07/30 14:09:21;;;;;;;;;3.00;2.00;;;;;;;;4681140;30;45548;-91
2021/07/30 14:11:46;;;;;;;;;1.75;1.00;;;;;;;;4648494;30;45533;-90
2021/07/30 14:14:11;;;;;;;;;1.00;1.00;;;;;;;;4669542;30;45458;-94
2021/07/30 14:16:36;;;;;;;;;2.25;1.25;;;;;;;;4670701;30;47160;-92
2021/07/30 14:19:02;;;;;;;;;1.00;1.00;;;;;;;;4663628;30;45707;-94
2021/07/30 14:21:27;;;;;;;;;1.75;1.75;;;;;;;;4681616;30;45875;-92
2021/07/30 14:23:52;;;;;;;;;1.00;1.00;;;;;;;;4678998;30;45506;-91
2021/07/30 14:26:17;;;;;;;;;4.00;2.00;;;;;;;;4665256;30;46970;-94
2021/07/30 14:28:43;;;;;;;;;4.00;1.00;;;;;;;;4671132;30;45603;-89
2021/07/30 14:31:12;;;;;;;;;1.75;1.00;;;;;;;;4656059;30;45561;-93
2021/07/30 14:33:38;;;;;;;;;0.00;0.00;;;;;;;;4653990;30;45584;-91
2021/07/30 14:36:06;;;;;;;;;2.25;1.00;;;;;;;;4685419;30;45860;-92
2021/07/30 14:38:31;;;;;;;;;3.25;1.50;;;;;;;;4680412;30;45417;-93
2021/07/30 14:40:58;;;;;;;;;2.00;2.00;;;;;;;;4673341;30;45533;-93
2021/07/30 14:43:23;;;;;;;;;2.00;0.75;;;;;;;;4685645;30;45407;-93
2021/07/30 14:45:49;;;;;;;;;1.00;1.00;;;;;;;;4674113;30;46944;-91
2021/07/30 14:48:14;;;;;;;;;3.75;1.75;;;;;;;;4686246;30;45511;-92
2021/07/30 14:50:41;;;;;;;;;1.75;0.25;;;;;;;;4670570;30;45377;-93
2021/07/30 14:53:06;;;;;;;;;1.75;1.75;;;;;;;;4687338;30;45065;-92
2021/07/30 14:55:37;;;;;;;;;2.00;1.00;;;;;;;;4685546;30;46363;-91
2021/07/30 14:58:02;;;;;;;;;1.25;0.75;;;;;;;;4687416;30;45466;-91
2021/07/30 15:00:27;;;;;;;;;7.50;5.25;;;;;;;;4685139;30;45702;-94
2021/07/30 15:02:52;;;;;;;;;0.50;0.50;;;;;;;;4682337;30;45726;-94
2021/07/30 15:05:18;;;;;;;;;1.00;1.00;;;;;;;;4687111;30;45512;-92
2021/07/30 15:07:43;;;;;;;;;0.75;0.75;;;;;;;;4669577;30;45879;-92
2021/07/30 15:10:09;;;;;;;;;2.00;1.00;;;;;;;;4669321;30;45330;-92
2021/07/30 15:12:34;;;;;;;;;1.75;1.00;;;;;;;;4670027;30;45494;-91
2021/07/30 15:14:59;;;;;;;;;1.00;1.00;;;;;;;;4679265;30;46981;-92
2021/07/30 15:17:25;;;;;;;;;1.00;1.00;;;;;;;;4684202;30;45439;-92
2021/07/30 15:19:50;;;;;;;;;1.00;1.00;;;;;;;;4668380;30;45423;-91
2021/07/30 15:22:15;;;;;;;;;2.00;1.25;;;;;;;;4665444;30;45371;-91
2021/07/30 15:24:40;;;;;;;;;0.67;0.67;;;;;;;;4672672;30;48030;-91
2021/07/30 15:27:06;;;;;;;;;1.67;1.67;;;;;;;;4684330;30;45489;-91
2021/07/30 15:29:31;;;;;;;;;1.00;1.00;;;;;;;;4667967;30;45747;-92
2021/07/30 15:31:56;;;;;;;;;1.00;1.00;;;;;;;;4683096;30;45492;-90
2021/07/30 15:34:21;;;;;;;;;11.50;8.75;;;;;;;;4668498;30;46773;-93
2021/07/30 15:36:49;;;;;;;;;0.75;0.75;;;;;;;;4678683;30;45740;-90
2021/07/30 15:39:16;;;;;;;;;3.00;1.00;;;;;;;;4663071;30;45551;-92
2021/07/30 15:41:41;;;;;;;;;3.00;2.00;;;;;;;;4682515;30;45825;-91
2021/07/30 15:44:07;;;;;;;;;0.75;0.75;;;;;;;;4684081;30;46462;-92
2021/07/30 15:46:32;;;;;;;;;2.50;2.00;;;;;;;;4668610;30;45772;-89